Time;durP1;ratioP1;P1;durP2;ratioP2;P2;SDS_P1;SDS_P2;PMS_P1;PMS_P2;Temp;Humidity;BMP_temperature;BMP_pressure;BME280_temperature;BME280_humidity;BME280_pressure;Samples;Min_cycle;Max_cycle;Signal;HPM_P1;HPM_P2
2024/01/21 00:02:44;;;;;;;30.63;20.92;;;;;;;-1.11;70.04;101473.16;10431023;28;20628;-65
2024/01/21 00:07:46;;;;;;;28.50;20.35;;;;;;;-1.16;69.98;101467.16;10414756;28;20061;-62
2024/01/21 00:12:48;;;;;;;27.05;20.02;;;;;;;-1.08;69.80;101470.53;10425212;28;20087;-61
2024/01/21 00:17:51;;;;;;;26.98;19.65;;;;;;;-1.13;69.34;101461.88;10401725;28;20060;-64
2024/01/21 00:22:52;;;;;;;23.63;17.55;;;;;;;-1.18;69.09;101442.78;10438102;28;20048;-63
2024/01/21 00:27:53;;;;;;;27.20;20.20;;;;;;;-1.23;69.52;101440.25;10436900;28;20082;-61
2024/01/21 00:32:55;;;;;;;23.83;19.58;;;;;;;-1.21;69.65;101448.91;10433505;28;20056;-60
2024/01/21 00:37:57;;;;;;;27.70;19.85;;;;;;;-1.19;69.09;101441.06;10417803;28;20061;-62
2024/01/21 00:42:59;;;;;;;26.25;19.45;;;;;;;-1.22;69.05;101441.94;10427664;28;20166;-62
2024/01/21 00:48:00;;;;;;;30.52;21.95;;;;;;;-1.28;69.11;101429.81;10385668;28;20535;-62
2024/01/21 00:53:02;;;;;;;26.13;20.70;;;;;;;-1.31;68.73;101439.44;10443117;28;21098;-62
2024/01/21 00:58:04;;;;;;;28.80;21.30;;;;;;;-1.26;69.28;101450.72;10426330;28;20702;-61
2024/01/21 01:03:05;;;;;;;27.83;20.70;;;;;;;-1.35;68.62;101448.19;10441552;28;20085;-61
2024/01/21 01:08:07;;;;;;;32.63;22.70;;;;;;;-1.41;68.42;101446.56;10442398;28;20040;-62
2024/01/21 01:13:08;;;;;;;33.03;22.35;;;;;;;-1.31;68.55;101445.53;10442703;28;20044;-61
2024/01/21 01:18:10;;;;;;;29.85;21.02;;;;;;;-1.28;68.52;101442.03;10407519;28;20124;-63
2024/01/21 01:23:12;;;;;;;29.27;21.05;;;;;;;-1.36;68.51;101433.44;10440935;28;20601;-62
2024/01/21 01:28:13;;;;;;;32.83;22.70;;;;;;;-1.45;67.87;101424.81;10428857;28;20044;-63
2024/01/21 01:33:14;;;;;;;29.17;20.70;;;;;;;-1.52;68.09;101422.28;10438277;28;20092;-62
2024/01/21 01:38:16;;;;;;;29.77;22.15;;;;;;;-1.57;68.50;101419.75;10437612;28;20065;-63
2024/01/21 01:43:18;;;;;;;30.52;21.35;;;;;;;-1.62;68.15;101417.19;10422863;28;20057;-61
2024/01/21 01:48:22;;;;;;;29.67;21.52;;;;;;;-1.57;68.31;101398.84;10430123;28;20049;-60
2024/01/21 01:53:24;;;;;;;25.65;19.83;;;;;;;-1.63;68.01;101391.94;10439431;28;20052;-61
2024/01/21 01:58:27;;;;;;;28.42;21.73;;;;;;;-1.62;68.43;101391.06;10423684;28;20135;-60
2024/01/21 02:03:29;;;;;;;28.88;20.90;;;;;;;-1.57;68.33;101393.63;10435191;28;20056;-62
2024/01/21 02:08:32;;;;;;;27.10;20.27;;;;;;;-1.63;67.67;101396.31;10423806;28;20690;-60
2024/01/21 02:13:34;;;;;;;26.77;19.73;;;;;;;-1.57;67.61;101388.41;10425658;28;20194;-62
2024/01/21 02:18:36;;;;;;;28.05;19.48;;;;;;;-1.54;67.88;101390.13;10428199;28;20130;-64
2024/01/21 02:23:38;;;;;;;26.52;19.98;;;;;;;-1.59;67.37;101382.34;10422290;28;20057;-59
2024/01/21 02:28:39;;;;;;;26.60;19.70;;;;;;;-1.64;66.79;101373.69;10421276;28;20052;-61
2024/01/21 02:33:41;;;;;;;25.80;19.10;;;;;;;-1.71;66.75;101374.63;10412015;28;20858;-61
2024/01/21 02:38:42;;;;;;;27.48;20.77;;;;;;;-1.84;67.49;101343.44;10412517;28;20698;-60
2024/01/21 02:43:44;;;;;;;27.83;20.92;;;;;;;-1.87;66.56;101348.72;10437732;28;20052;-61
2024/01/21 02:48:47;;;;;;;26.35;20.17;;;;;;;-1.81;67.14;101339.97;10417537;28;20173;-63
2024/01/21 02:53:50;;;;;;;26.90;19.80;;;;;;;-1.85;67.07;101320.84;10406594;28;25628;-61
2024/01/21 02:58:53;;;;;;;29.10;20.90;;;;;;;-1.78;67.26;101330.31;10437409;28;20052;-62
2024/01/21 03:03:54;;;;;;;27.33;20.45;;;;;;;-1.83;66.25;101329.53;10418589;28;20767;-59
2024/01/21 03:08:56;;;;;;;29.35;20.45;;;;;;;-1.79;66.78;101344.28;10424698;28;20109;-62
2024/01/21 03:13:58;;;;;;;30.08;22.00;;;;;;;-1.82;66.52;101336.50;10408248;28;20617;-60
2024/01/21 03:19:00;;;;;;;28.90;21.20;;;;;;;-1.80;66.77;101324.28;10415141;28;20143;-61
2024/01/21 03:24:01;;;;;;;29.30;22.27;;;;;;;-1.85;66.94;101318.22;10429050;28;20048;-62
2024/01/21 03:29:03;;;;;;;26.63;21.73;;;;;;;-1.88;66.90;101300.00;10429533;28;20137;-60
2024/01/21 03:34:04;;;;;;;32.63;21.83;;;;;;;-1.91;66.85;101286.97;10431324;28;20060;-60
2024/01/21 03:39:06;;;;;;;27.50;20.70;;;;;;;-1.81;67.18;101296.44;10413228;28;20057;-61
2024/01/21 03:44:08;;;;;;;29.52;20.52;;;;;;;-1.89;66.54;101298.28;10424972;28;20133;-62
2024/01/21 03:49:09;;;;;;;25.90;20.50;;;;;;;-1.94;67.51;101294.84;10446632;28;20781;-62
2024/01/21 03:54:11;;;;;;;25.98;20.52;;;;;;;-1.84;67.22;101301.69;10438545;28;20060;-62
2024/01/21 03:59:13;;;;;;;30.35;22.13;;;;;;;-1.90;67.23;101282.66;10453724;28;20252;-64
2024/01/21 04:04:15;;;;;;;27.63;20.50;;;;;;;-1.82;67.07;101294.72;10397795;28;20052;-62
2024/01/21 04:09:24;;;;;;;28.17;21.35;;;;;;;-1.76;67.29;101296.38;10431945;28;20610;-61
2024/01/21 04:14:26;;;;;;;27.00;20.48;;;;;;;-1.89;67.05;101281.75;10446987;28;20065;-61
2024/01/21 04:19:27;;;;;;;28.98;19.95;;;;;;;-1.89;67.17;101281.75;10444376;28;20113;-63
2024/01/21 04:24:29;;;;;;;25.27;19.00;;;;;;;-1.87;67.98;101291.28;10431121;28;20556;-62
2024/01/21 04:29:31;;;;;;;26.55;19.20;;;;;;;-1.86;67.59;101286.94;10426585;28;20506;-60
2024/01/21 04:34:33;;;;;;;28.65;22.05;;;;;;;-1.76;67.74;101287.69;10420624;28;20730;-62
2024/01/21 04:39:34;;;;;;;26.88;19.95;;;;;;;-1.92;67.71;101269.63;10439367;28;20048;-61
2024/01/21 04:44:36;;;;;;;27.15;19.30;;;;;;;-1.89;66.68;101276.53;10397842;28;20059;-60
2024/01/21 04:49:38;;;;;;;26.23;19.98;;;;;;;-1.78;67.01;101283.34;10442663;28;20052;-63
2024/01/21 04:54:39;;;;;;;26.67;19.70;;;;;;;-1.93;66.81;101269.63;10446031;28;20662;-59
2024/01/21 04:59:41;;;;;;;27.75;20.50;;;;;;;-2.09;66.35;101284.59;10442227;28;20049;-60
2024/01/21 05:04:42;;;;;;;28.67;20.92;;;;;;;-2.27;68.54;101302.19;10429197;28;20541;-63
2024/01/21 05:09:44;;;;;;;29.00;21.98;;;;;;;-2.41;68.04;101312.75;10432624;28;20037;-62
2024/01/21 05:14:48;;;;;;;29.20;21.55;;;;;;;-2.34;68.51;101311.81;10406401;28;20134;-61
2024/01/21 05:19:49;;;;;;;28.63;21.48;;;;;;;-2.47;67.20;101298.94;10400086;28;20126;-62
2024/01/21 05:24:51;;;;;;;31.58;23.38;;;;;;;-2.67;66.26;101313.88;10431917;28;20989;-62
2024/01/21 05:29:52;;;;;;;31.52;22.75;;;;;;;-3.26;67.01;101318.66;10419006;28;20078;-66
2024/01/21 05:34:54;;;;;;;32.75;23.02;;;;;;;-3.50;67.89;101303.16;10438916;28;20103;-61
2024/01/21 05:39:55;;;;;;;30.83;22.73;;;;;;;-3.71;68.01;101278.13;10438752;28;20143;-62
2024/01/21 05:44:57;;;;;;;35.38;23.23;;;;;;;-3.57;68.37;101279.78;10438775;28;20200;-62
2024/01/21 05:49:58;;;;;;;33.95;21.98;;;;;;;-3.52;69.20;101268.50;10424648;28;20079;-61
2024/01/21 05:55:00;;;;;;;36.00;23.63;;;;;;;-3.37;68.22;101284.00;10440197;28;20048;-61
2024/01/21 06:00:02;;;;;;;34.92;23.05;;;;;;;-3.30;68.32;101290.91;10437541;28;20553;-61
2024/01/21 06:05:04;;;;;;;31.77;22.00;;;;;;;-3.40;68.96;101287.47;10400803;28;20045;-61
2024/01/21 06:10:06;;;;;;;40.88;25.52;;;;;;;-3.40;71.06;101284.88;10404422;28;20057;-60
2024/01/21 06:15:12;;;;;;;39.60;25.83;;;;;;;-3.33;72.56;101284.84;10437046;28;20106;-61
2024/01/21 06:20:14;;;;;;;54.83;26.88;;;;;;;-3.30;73.54;101290.91;10432165;28;20044;-61
2024/01/21 06:25:15;;;;;;;41.90;26.10;;;;;;;-3.30;73.82;101249.25;10432964;28;20119;-61
2024/01/21 06:30:18;;;;;;;46.25;27.33;;;;;;;-3.16;73.98;101271.72;10397194;28;20048;-62
2024/01/21 06:35:19;;;;;;;45.60;29.65;;;;;;;-3.26;74.17;101277.00;10433331;28;20620;-63
2024/01/21 06:40:21;;;;;;;44.60;26.45;;;;;;;-3.39;74.97;101283.16;10435879;28;20111;-64
2024/01/21 06:45:23;;;;;;;50.97;29.40;;;;;;;-3.58;76.00;101270.22;10443048;28;20162;-63
2024/01/21 06:50:27;;;;;;;45.38;28.13;;;;;;;-3.62;77.25;101265.06;10398038;28;20182;-67
2024/01/21 06:55:29;;;;;;;52.38;28.23;;;;;;;-3.48;77.94;101291.00;10422875;28;20052;-62
2024/01/21 07:00:30;;;;;;;47.10;26.80;;;;;;;-3.31;78.26;101280.50;10438826;28;20052;-63
2024/01/21 07:05:32;;;;;;;52.85;28.73;;;;;;;-3.15;77.47;101265.63;10407387;28;20052;-63
2024/01/21 07:10:34;;;;;;;49.72;29.33;;;;;;;-3.21;75.73;101251.78;10401529;28;20065;-64
2024/01/21 07:15:35;;;;;;;45.13;27.85;;;;;;;-3.19;75.31;101267.38;10403239;28;20057;-64
2024/01/21 07:20:37;;;;;;;47.00;25.13;;;;;;;-3.22;75.01;101277.81;10420954;28;20066;-64
2024/01/21 07:25:39;;;;;;;44.88;26.45;;;;;;;-3.29;75.92;101282.19;10418014;28;20585;-64
2024/01/21 07:30:41;;;;;;;47.58;26.88;;;;;;;-3.21;75.54;101290.00;10379313;28;20451;-63
2024/01/21 07:35:42;;;;;;;50.72;29.15;;;;;;;-3.18;74.93;101273.44;10417737;28;20383;-64
2024/01/21 07:40:47;;;;;;;45.22;27.60;;;;;;;-3.19;74.67;101270.00;10432822;28;20052;-65
2024/01/21 07:45:49;;;;;;;44.20;27.17;;;;;;;-3.14;75.16;101288.19;10439484;28;20060;-64
2024/01/21 07:50:53;;;;;;;44.65;24.38;;;;;;;-3.05;74.05;101290.72;10440364;28;20260;-64
2024/01/21 07:55:55;;;;;;;41.92;24.75;;;;;;;-2.94;73.75;101288.91;10446529;28;20078;-64
2024/01/21 08:00:57;;;;;;;43.70;24.10;;;;;;;-2.99;73.48;101285.47;10453610;28;20059;-64
2024/01/21 08:05:59;;;;;;;35.30;21.20;;;;;;;-2.93;73.89;101263.72;10415750;28;20106;-67
2024/01/21 08:11:00;;;;;;;37.22;22.45;;;;;;;-3.03;73.06;101295.06;10453678;28;20116;-64
2024/01/21 08:16:02;;;;;;;34.50;21.48;;;;;;;-2.90;75.27;101295.84;10456799;28;20052;-61
2024/01/21 08:21:06;;;;;;;35.58;21.95;;;;;;;-2.72;72.60;101325.19;10447462;28;20369;-64
2024/01/21 08:26:08;;;;;;;32.13;20.45;;;;;;;-3.26;72.56;101300.44;10431940;28;20068;-63
2024/01/21 08:31:10;;;;;;;32.65;20.90;;;;;;;-3.09;73.38;101315.06;10438352;28;20055;-63
2024/01/21 08:36:13;;;;;;;39.95;23.52;;;;;;;-3.26;73.17;101302.16;10418567;28;20053;-63
2024/01/21 08:41:17;;;;;;;38.42;22.45;;;;;;;-3.05;73.00;101337.63;10419168;28;20168;-62
2024/01/21 08:46:19;;;;;;;37.28;23.05;;;;;;;-3.11;73.24;101322.03;10444525;28;20122;-63
2024/01/21 08:51:21;;;;;;;35.08;22.13;;;;;;;-3.18;74.26;101330.75;10446298;28;20047;-64
2024/01/21 08:56:25;;;;;;;37.17;22.98;;;;;;;-3.18;75.50;101295.16;10428087;28;20140;-66
2024/01/21 09:01:27;;;;;;;39.13;23.30;;;;;;;-2.86;75.60;101317.50;10424175;28;20405;-65
2024/01/21 09:06:29;;;;;;;45.15;24.95;;;;;;;-2.85;75.32;101314.88;10422458;28;20053;-66
2024/01/21 09:11:32;;;;;;;45.28;26.38;;;;;;;-2.81;73.70;101335.72;10407412;28;20153;-63
2024/01/21 09:16:33;;;;;;;42.88;24.17;;;;;;;-2.69;74.28;101351.25;10446004;28;20049;-63
2024/01/21 09:21:34;;;;;;;44.55;26.75;;;;;;;-2.82;73.80;101352.22;10433128;28;20052;-63
2024/01/21 09:26:38;;;;;;;50.83;28.13;;;;;;;-2.74;74.82;101326.97;10428013;28;20434;-63
2024/01/21 09:31:40;;;;;;;47.75;26.92;;;;;;;-2.79;74.67;101324.41;10442426;28;20139;-63
2024/01/21 09:36:41;;;;;;;47.20;28.67;;;;;;;-2.80;75.57;101307.03;10438750;28;20098;-64
2024/01/21 09:41:49;;;;;;;47.78;27.45;;;;;;;-2.62;75.04;101308.63;10393732;28;20044;-64
2024/01/21 09:46:55;;;;;;;53.70;27.73;;;;;;;-2.78;74.61;101326.13;10436201;28;20051;-64
2024/01/21 09:51:56;;;;;;;50.65;28.90;;;;;;;-2.87;75.78;101341.81;10431178;28;20130;-63
2024/01/21 09:57:00;;;;;;;56.55;30.65;;;;;;;-2.66;76.59;101392.94;10425421;28;20144;-64
2024/01/21 10:02:01;;;;;;;53.40;29.52;;;;;;;-2.73;75.89;101370.38;10445956;28;20590;-66
2024/01/21 10:07:03;;;;;;;52.50;29.27;;;;;;;-2.42;76.67;101430.13;10426697;28;20069;-64
2024/01/21 10:12:05;;;;;;;52.40;28.38;;;;;;;-2.18;76.31;101416.00;10431032;28;20052;-62
2024/01/21 10:17:07;;;;;;;57.80;32.45;;;;;;;-1.97;76.21;101404.50;10435033;28;20222;-65
2024/01/21 10:22:14;;;;;;;53.22;29.52;;;;;;;-1.91;74.82;101406.19;10440920;28;20075;-63
2024/01/21 10:27:16;;;;;;;56.08;31.30;;;;;;;-1.90;74.69;101387.91;10401567;28;20077;-64
2024/01/21 10:32:21;;;;;;;45.25;27.77;;;;;;;-2.02;75.66;101383.66;10437574;28;20800;-65
2024/01/21 10:37:24;;;;;;;54.20;30.88;;;;;;;-1.79;75.54;101396.50;10438640;28;20056;-64
2024/01/21 10:42:25;;;;;;;54.80;32.70;;;;;;;-1.62;75.32;101379.78;10437814;28;20680;-64
2024/01/21 10:47:29;;;;;;;55.45;33.60;;;;;;;-1.73;74.39;101353.75;10424315;28;20045;-64
2024/01/21 10:52:31;;;;;;;54.17;31.98;;;;;;;-2.01;75.79;101329.72;10439314;28;20404;-64
2024/01/21 10:57:33;;;;;;;54.30;30.95;;;;;;;-2.08;77.15;101318.50;10419155;28;20052;-64
2024/01/21 11:02:35;;;;;;;48.35;29.13;;;;;;;-1.90;77.24;101301.78;10411598;28;20068;-64
2024/01/21 11:07:38;;;;;;;46.50;30.65;;;;;;;-2.17;78.59;101271.66;10417011;28;20317;-65
2024/01/21 11:12:39;;;;;;;54.35;36.28;;;;;;;-1.93;78.81;101280.94;10423086;28;20036;-64
2024/01/21 11:17:41;;;;;;;49.20;28.83;;;;;;;-1.60;77.67;101273.53;10439339;28;20460;-64
2024/01/21 11:22:43;;;;;;;50.65;29.33;;;;;;;-1.42;77.42;101294.16;10412749;28;20059;-63
2024/01/21 11:27:44;;;;;;;48.10;28.23;;;;;;;-1.42;77.35;101288.94;10432018;28;20052;-64
2024/01/21 11:32:57;;;;;;;46.83;28.75;;;;;;;-1.08;77.45;101288.47;10436047;28;20646;-64
2024/01/21 11:37:59;;;;;;;47.22;27.60;;;;;;;-0.81;76.28;101278.44;10395687;28;20083;-64
2024/01/21 11:43:02;;;;;;;81.20;51.35;;;;;;;-0.63;75.38;101273.75;10434677;28;20200;-65
2024/01/21 11:48:09;;;;;;;43.63;26.73;;;;;;;0.27;73.41;101286.88;10420855;28;20734;-62
2024/01/21 11:53:11;;;;;;;35.55;23.40;;;;;;;1.37;69.39;101279.91;10434426;28;20071;-64
2024/01/21 11:58:14;;;;;;;61.30;43.20;;;;;;;1.61;67.63;101261.81;10402977;28;20088;-62
2024/01/21 12:03:16;;;;;;;40.90;26.08;;;;;;;1.25;68.04;101251.38;10417327;28;20044;-64
2024/01/21 12:08:17;;;;;;;39.38;26.02;;;;;;;0.75;70.25;101258.72;10440810;28;20057;-65
2024/01/21 12:13:21;;;;;;;37.92;26.88;;;;;;;0.60;70.54;101260.81;10444232;28;20136;-66
2024/01/21 12:18:22;;;;;;;36.22;26.50;;;;;;;0.93;69.67;101258.31;10442464;28;20061;-64
2024/01/21 12:23:24;;;;;;;38.15;25.83;;;;;;;1.55;67.85;101261.97;10410896;28;20053;-64
2024/01/21 12:28:30;;;;;;;37.00;25.65;;;;;;;1.88;66.89;101277.72;10417092;28;20240;-64
2024/01/21 12:33:32;;;;;;;37.40;26.45;;;;;;;2.12;66.78;101250.72;10446477;28;20636;-66
2024/01/21 12:38:35;;;;;;;42.13;28.88;;;;;;;2.46;66.04;101251.47;10451649;28;20068;-66
2024/01/21 12:43:37;;;;;;;41.83;32.03;;;;;;;2.75;63.33;101231.31;10445193;28;20040;-65
2024/01/21 12:48:38;;;;;;;40.92;27.35;;;;;;;2.65;63.36;101170.28;10425900;28;20164;-65
2024/01/21 12:53:42;;;;;;;38.67;27.25;;;;;;;2.83;63.71;101211.72;10419093;28;20170;-65
2024/01/21 12:58:44;;;;;;;33.78;23.45;;;;;;;2.64;64.89;101218.50;10419851;28;20490;-65
2024/01/21 13:03:46;;;;;;;31.70;25.52;;;;;;;3.00;63.66;101220.84;10427115;28;20610;-66
2024/01/21 13:08:48;;;;;;;32.22;23.30;;;;;;;3.03;62.86;101204.94;10426435;28;20048;-66
2024/01/21 13:13:50;;;;;;;32.05;24.67;;;;;;;3.43;62.20;101202.72;10404447;28;20098;-66
2024/01/21 13:18:51;;;;;;;35.08;25.75;;;;;;;3.51;61.21;101206.81;10440513;28;21066;-65
2024/01/21 13:23:53;;;;;;;31.38;23.60;;;;;;;3.85;60.86;101195.00;10436689;28;20052;-66
2024/01/21 13:34:10;;;;;;;35.17;24.83;;;;;;;5.47;56.03;101195.53;10437435;28;20049;-66
2024/01/21 13:39:13;;;;;;;32.05;24.13;;;;;;;6.68;52.79;101201.41;10408400;28;20174;-66
2024/01/21 13:44:16;;;;;;;32.95;24.17;;;;;;;7.62;50.10;101167.47;10416675;28;20123;-66
2024/01/21 13:49:18;;;;;;;30.23;22.35;;;;;;;7.19;49.76;101172.38;10434638;28;20555;-65
2024/01/21 13:54:20;;;;;;;36.92;30.85;;;;;;;7.46;49.98;101166.59;10419139;28;20049;-64
2024/01/21 13:59:21;;;;;;;29.85;24.15;;;;;;;6.62;51.74;101156.72;10390872;28;20560;-64
2024/01/21 14:04:23;;;;;;;28.38;22.20;;;;;;;4.76;56.57;101146.63;10419350;28;20048;-64
2024/01/21 14:09:24;;;;;;;28.70;23.42;;;;;;;3.77;61.45;101157.59;10415419;28;20594;-66
2024/01/21 14:14:26;;;;;;;29.00;23.20;;;;;;;3.49;62.89;101150.69;10436725;28;20138;-67
2024/01/21 14:19:27;;;;;;;29.85;22.50;;;;;;;3.37;63.50;101174.84;10430440;28;20651;-66
2024/01/21 14:24:31;;;;;;;26.92;21.30;;;;;;;3.08;65.46;101173.22;10422810;28;20056;-66
2024/01/21 14:29:38;;;;;;;26.67;20.60;;;;;;;2.81;66.37;101182.00;10427051;28;20580;-67
2024/01/21 14:34:40;;;;;;;24.98;20.17;;;;;;;2.63;67.85;101193.13;10437264;28;20064;-67
2024/01/21 14:39:41;;;;;;;31.67;22.35;;;;;;;2.44;68.67;101180.56;10437271;28;20498;-65
2024/01/21 14:44:43;;;;;;;28.63;21.23;;;;;;;2.34;69.28;101152.00;10439782;28;20715;-65
2024/01/21 14:49:45;;;;;;;28.33;21.42;;;;;;;2.50;69.19;101174.25;10414654;28;20060;-64
2024/01/21 14:54:46;;;;;;;26.80;21.60;;;;;;;2.41;69.41;101185.06;10429422;28;20056;-65
2024/01/21 14:59:48;;;;;;;28.73;21.17;;;;;;;2.33;70.52;101195.81;10436061;28;20052;-66
2024/01/21 15:04:53;;;;;;;26.88;20.60;;;;;;;2.32;70.61;101199.34;10422665;28;20131;-65
2024/01/21 15:09:54;;;;;;;26.23;20.17;;;;;;;2.23;71.15;101207.53;10436843;28;20048;-65
2024/01/21 15:15:03;;;;;;;26.67;21.10;;;;;;;2.23;72.03;101204.91;10429760;28;20064;-64
2024/01/21 15:20:05;;;;;;;27.23;21.77;;;;;;;2.28;72.13;101202.97;10420916;28;20578;-66
2024/01/21 15:25:07;;;;;;;31.00;21.75;;;;;;;2.25;72.79;101201.31;10434755;28;20052;-66
2024/01/21 15:30:09;;;;;;;29.27;22.17;;;;;;;2.30;72.71;101198.56;10433956;28;20645;-66
2024/01/21 15:35:11;;;;;;;34.42;26.85;;;;;;;2.27;73.01;101196.03;10417946;28;20383;-67
2024/01/21 15:40:12;;;;;;;30.27;22.70;;;;;;;2.18;73.13;101175.25;10405071;28;20395;-67
2024/01/21 15:45:14;;;;;;;30.23;23.65;;;;;;;2.05;74.09;101177.41;10419366;28;20122;-66
2024/01/21 15:50:15;;;;;;;32.22;25.45;;;;;;;1.80;75.12;101177.28;10409657;28;20063;-65
2024/01/21 15:55:19;;;;;;;31.40;24.73;;;;;;;1.75;75.60;101178.28;10398261;28;20052;-65
2024/01/21 16:00:21;;;;;;;31.30;24.45;;;;;;;1.77;75.64;101194.84;10413676;28;20650;-66
2024/01/21 16:05:22;;;;;;;32.35;24.08;;;;;;;1.79;75.84;101193.94;10428339;28;20078;-65
2024/01/21 16:10:24;;;;;;;32.25;24.15;;;;;;;1.80;76.17;101203.53;10440495;28;20481;-66
2024/01/21 16:15:26;;;;;;;34.92;26.15;;;;;;;1.78;76.60;101193.06;10439037;28;20051;-68
2024/01/21 16:20:43;;;;;;;30.25;23.95;;;;;;;1.91;76.53;101201.47;10430707;28;20103;-67
2024/01/21 16:25:47;;;;;;;30.23;22.52;;;;;;;1.99;76.33;101204.72;10423677;28;20152;-65
2024/01/21 16:30:49;;;;;;;31.77;23.73;;;;;;;2.16;76.25;101217.34;10437077;28;20060;-67
2024/01/21 16:35:50;;;;;;;28.15;21.25;;;;;;;2.21;76.29;101217.22;10439455;28;20079;-66
2024/01/21 16:40:52;;;;;;;30.08;23.80;;;;;;;1.98;76.86;101171.47;10424443;28;20045;-66
2024/01/21 16:45:54;;;;;;;31.42;24.15;;;;;;;2.22;77.03;101192.66;10440808;28;20056;-67
2024/01/21 16:50:57;;;;;;;31.02;25.02;;;;;;;2.19;77.12;101201.50;10421700;28;20789;-65
2024/01/21 16:56:00;;;;;;;32.47;24.95;;;;;;;2.11;77.36;101193.00;10436800;28;20140;-67
2024/01/21 17:01:05;;;;;;;29.83;23.38;;;;;;;1.96;78.13;101188.22;10433611;28;20057;-68
2024/01/21 17:06:07;;;;;;;30.85;23.77;;;;;;;2.02;78.27;101194.13;10438483;28;20056;-69
2024/01/21 17:11:19;;;;;;;31.23;24.13;;;;;;;2.08;78.30;101193.94;10462858;28;20533;-68
2024/01/21 17:16:21;;;;;;;30.00;22.98;;;;;;;2.14;78.21;101189.41;10429108;28;20048;-65
2024/01/21 17:21:25;;;;;;;23.20;19.50;;;;;;;2.04;78.80;101166.06;10440037;28;20055;-66
2024/01/21 17:26:26;;;;;;;32.08;23.02;;;;;;;2.17;80.20;101156.03;10440056;28;20556;-68
2024/01/21 17:31:30;;;;;;;31.00;24.15;;;;;;;2.30;80.75;101140.75;10399906;28;20071;-68
2024/01/21 17:36:33;;;;;;;27.05;21.33;;;;;;;2.39;80.55;101147.47;10404880;28;20052;-70
2024/01/21 17:41:40;;;;;;;;;;;;;;;2.30;79.40;101152.09;10418944;28;20061;-66
2024/01/21 17:46:43;;;;;;;22.10;17.70;;;;;;;2.29;79.48;101149.53;10420800;28;19963;-67
2024/01/21 17:51:45;;;;;;;27.23;21.95;;;;;;;2.24;79.89;101151.44;10436326;28;20052;-67
2024/01/21 17:56:48;;;;;;;29.25;23.05;;;;;;;2.24;80.33;101135.69;10434584;28;20071;-65
2024/01/21 18:01:50;;;;;;;31.38;22.95;;;;;;;2.30;80.07;101143.38;10439328;28;20684;-68
2024/01/21 18:06:55;;;;;;;31.27;25.10;;;;;;;2.29;80.13;101112.75;10417483;28;20049;-67
2024/01/21 18:11:57;;;;;;;27.73;22.30;;;;;;;2.29;80.59;101107.50;10436394;28;20162;-68
2024/01/21 18:17:24;;;;;;;24.55;21.27;;;;;;;2.42;80.24;101129.84;10382719;28;20032;-71
2024/01/21 18:22:26;;;;;;;26.52;20.58;;;;;;;2.47;80.12;101127.91;10411708;28;20154;-67
2024/01/21 18:27:29;;;;;;;30.67;24.02;;;;;;;2.54;79.91;101133.84;10439125;28;20045;-68
2024/01/21 18:32:32;;;;;;;31.80;26.02;;;;;;;2.58;79.75;101118.81;10439752;28;20055;-67
2024/01/21 18:37:35;;;;;;;50.88;35.85;;;;;;;2.64;79.89;101115.97;10418447;28;20117;-69
2024/01/21 18:42:37;;;;;;;27.92;22.25;;;;;;;2.68;79.52;101112.34;10426591;28;20095;-71
2024/01/21 18:47:39;;;;;;;25.90;22.02;;;;;;;2.77;79.83;101124.31;10427222;28;20044;-67
2024/01/21 18:52:41;;;;;;;23.83;19.65;;;;;;;2.82;79.68;101104.84;10422285;28;20606;-69
2024/01/21 18:57:49;;;;;;;27.20;21.58;;;;;;;2.88;79.58;101105.53;10435925;28;20045;-68
2024/01/21 19:02:51;;;;;;;28.25;21.60;;;;;;;2.87;79.36;101093.28;10410634;28;20167;-66
2024/01/21 19:07:52;;;;;;;23.38;19.27;;;;;;;2.87;79.82;101094.16;10385039;28;20521;-67
2024/01/21 19:12:54;;;;;;;23.10;19.02;;;;;;;2.89;79.70;101104.63;10438312;28;20102;-66
2024/01/21 19:17:56;;;;;;;23.83;19.85;;;;;;;2.88;79.72;101100.28;10424387;28;20148;-68
2024/01/21 19:22:58;;;;;;;27.92;21.20;;;;;;;2.90;79.88;101101.06;10405716;28;20068;-66
2024/01/21 19:28:04;;;;;;;25.95;19.98;;;;;;;2.90;79.81;101093.19;10419506;28;20083;-67
2024/01/21 19:33:05;;;;;;;21.77;19.13;;;;;;;2.92;79.90;101080.84;10432319;28;20415;-68
2024/01/21 19:38:09;;;;;;;23.40;20.60;;;;;;;3.04;79.70;101085.66;10428282;28;20514;-68
2024/01/21 19:43:10;;;;;;;22.48;16.95;;;;;;;3.07;79.65;101080.28;10440518;28;20067;-66
2024/01/21 19:48:12;;;;;;;19.48;16.77;;;;;;;3.03;79.90;101078.69;10445921;28;20137;-67
2024/01/21 19:53:13;;;;;;;20.30;17.63;;;;;;;3.14;79.57;101076.53;10442487;28;20049;-66
2024/01/21 19:58:15;;;;;;;21.40;16.70;;;;;;;3.23;79.58;101090.25;10442154;28;20131;-67
2024/01/21 20:03:16;;;;;;;21.13;17.65;;;;;;;3.25;80.15;101072.66;10445732;28;20115;-66
2024/01/21 20:08:18;;;;;;;23.25;18.77;;;;;;;3.28;79.75;101051.50;10421708;28;20048;-68
2024/01/21 20:13:20;;;;;;;23.48;17.90;;;;;;;3.27;79.53;101047.13;10445890;28;20045;-70
2024/01/21 20:18:23;;;;;;;23.35;19.15;;;;;;;3.27;79.44;101023.44;10403936;28;20302;-68
2024/01/21 20:23:27;;;;;;;22.65;17.88;;;;;;;3.32;79.77;101029.41;10427154;28;20053;-67
2024/01/21 20:28:31;;;;;;;21.10;17.33;;;;;;;3.26;80.03;101016.47;10424694;28;20051;-67
2024/01/21 20:33:34;;;;;;;20.57;17.47;;;;;;;3.34;80.21;101009.16;10396351;28;20066;-66
2024/01/21 20:38:37;;;;;;;21.00;17.58;;;;;;;3.34;80.06;100993.34;10434721;28;20068;-68
2024/01/21 20:43:43;;;;;;;18.63;16.63;;;;;;;3.41;80.27;100994.84;10442637;28;20135;-66
2024/01/21 20:48:47;;;;;;;22.98;18.02;;;;;;;3.44;80.02;100978.94;10440387;28;20068;-66
2024/01/21 20:53:50;;;;;;;17.75;15.35;;;;;;;3.48;79.99;100943.69;10439611;28;20120;-68
2024/01/21 20:58:52;;;;;;;19.15;16.73;;;;;;;3.49;80.12;100944.53;10438928;28;20218;-68
2024/01/21 21:03:54;;;;;;;21.02;15.93;;;;;;;3.48;80.22;100941.03;10419828;28;20193;-66
2024/01/21 21:08:55;;;;;;;20.52;16.77;;;;;;;3.47;79.97;100939.31;10425825;28;20054;-66
2024/01/21 21:13:56;;;;;;;26.02;20.05;;;;;;;3.46;80.10;100929.69;10445930;28;20102;-66
2024/01/21 21:18:59;;;;;;;31.13;27.85;;;;;;;3.36;80.46;100907.28;10436132;28;20190;-66
2024/01/21 21:24:03;;;;;;;23.17;19.75;;;;;;;3.43;80.21;100895.59;10465498;28;20045;-66
2024/01/21 21:29:05;;;;;;;25.17;22.60;;;;;;;3.43;80.25;100886.88;10467514;28;20165;-66
2024/01/21 21:34:07;;;;;;;20.27;16.60;;;;;;;3.48;80.87;100896.28;10448599;28;20052;-68
2024/01/21 21:39:08;;;;;;;23.08;17.08;;;;;;;3.45;81.23;100871.84;10462525;28;20071;-68
2024/01/21 21:44:11;;;;;;;22.48;16.45;;;;;;;3.40;81.78;100858.88;10461975;28;20748;-71
2024/01/21 21:49:13;;;;;;;28.42;25.25;;;;;;;3.38;82.76;100849.34;10432987;28;21308;-68
2024/01/21 21:54:15;;;;;;;19.98;15.63;;;;;;;3.42;82.61;100833.34;10437212;28;20500;-67
2024/01/21 21:59:17;;;;;;;19.20;14.15;;;;;;;3.51;82.60;100827.72;10442323;28;20052;-69
2024/01/21 22:04:19;;;;;;;15.85;12.18;;;;;;;3.57;82.67;100831.00;10436122;28;20670;-67
2024/01/21 22:09:21;;;;;;;13.32;11.77;;;;;;;3.58;82.68;100843.25;10432530;28;20698;-67
2024/01/21 22:14:22;;;;;;;14.90;11.23;;;;;;;3.48;83.54;100825.22;10412541;28;20048;-70
2024/01/21 22:19:24;;;;;;;14.73;11.10;;;;;;;3.47;84.45;100807.72;10433316;28;20059;-68
2024/01/21 22:24:26;;;;;;;10.73;9.35;;;;;;;3.58;84.15;100790.59;10420139;28;20153;-67
2024/01/21 22:29:29;;;;;;;11.63;9.75;;;;;;;3.64;84.35;100791.19;10411043;28;20048;-69
2024/01/21 22:34:32;;;;;;;12.53;7.80;;;;;;;3.66;84.78;100777.97;10427335;28;20061;-70
2024/01/21 22:39:35;;;;;;;10.20;8.63;;;;;;;3.68;84.59;100781.41;10437962;28;20052;-68
2024/01/21 22:44:37;;;;;;;10.57;7.20;;;;;;;3.75;84.32;100782.81;10429015;28;20117;-70
2024/01/21 22:49:39;;;;;;;11.77;7.32;;;;;;;3.75;84.21;100776.72;10422427;28;20063;-68
2024/01/21 22:54:43;;;;;;;9.20;6.43;;;;;;;3.58;83.70;100744.06;10433593;28;20044;-71